sensor_id;sensor_type;location;lat;lon;timestamp;P1;durP1;ratioP1;P2;durP2;ratioP2
80193;SDS011;69515;42.072;21.504;2023-05-16T00:01:16;0.55;;;0.30;;
80193;SDS011;69515;42.072;21.504;2023-05-16T00:03:42;0.43;;;0.30;;
80193;SDS011;69515;42.072;21.504;2023-05-16T00:06:09;0.35;;;0.30;;
80193;SDS011;69515;42.072;21.504;2023-05-16T00:08:35;0.32;;;0.32;;
80193;SDS011;69515;42.072;21.504;2023-05-16T00:11:02;0.47;;;0.30;;
80193;SDS011;69515;42.072;21.504;2023-05-16T00:13:28;0.98;;;0.30;;
80193;SDS011;69515;42.072;21.504;2023-05-16T00:15:55;0.30;;;0.30;;
80193;SDS011;69515;42.072;21.504;2023-05-16T00:18:22;0.50;;;0.40;;
80193;SDS011;69515;42.072;21.504;2023-05-16T00:20:51;0.47;;;0.30;;
80193;SDS011;69515;42.072;21.504;2023-05-16T00:23:18;0.40;;;0.30;;
80193;SDS011;69515;42.072;21.504;2023-05-16T00:25:44;0.40;;;0.40;;
80193;SDS011;69515;42.072;21.504;2023-05-16T00:28:11;0.30;;;0.30;;
80193;SDS011;69515;42.072;21.504;2023-05-16T00:30:37;0.30;;;0.30;;
80193;SDS011;69515;42.072;21.504;2023-05-16T00:33:04;0.80;;;0.40;;
80193;SDS011;69515;42.072;21.504;2023-05-16T00:35:30;0.43;;;0.40;;
80193;SDS011;69515;42.072;21.504;2023-05-16T00:37:56;0.32;;;0.30;;
80193;SDS011;69515;42.072;21.504;2023-05-16T00:40:23;0.50;;;0.30;;
80193;SDS011;69515;42.072;21.504;2023-05-16T00:42:49;0.30;;;0.30;;
80193;SDS011;69515;42.072;21.504;2023-05-16T00:45:15;0.52;;;0.30;;
80193;SDS011;69515;42.072;21.504;2023-05-16T00:47:42;0.57;;;0.38;;
80193;SDS011;69515;42.072;21.504;2023-05-16T00:50:08;0.50;;;0.40;;
80193;SDS011;69515;42.072;21.504;2023-05-16T00:52:35;0.45;;;0.30;;
80193;SDS011;69515;42.072;21.504;2023-05-16T00:55:01;0.52;;;0.30;;
80193;SDS011;69515;42.072;21.504;2023-05-16T00:57:27;1.40;;;0.40;;
80193;SDS011;69515;42.072;21.504;2023-05-16T00:59:54;0.47;;;0.32;;
80193;SDS011;69515;42.072;21.504;2023-05-16T01:02:20;0.60;;;0.38;;
80193;SDS011;69515;42.072;21.504;2023-05-16T01:04:47;0.28;;;0.28;;
80193;SDS011;69515;42.072;21.504;2023-05-16T01:07:15;0.30;;;0.30;;
80193;SDS011;69515;42.072;21.504;2023-05-16T01:09:42;0.40;;;0.35;;
80193;SDS011;69515;42.072;21.504;2023-05-16T01:12:17;0.55;;;0.30;;
80193;SDS011;69515;42.072;21.504;2023-05-16T01:20:02;0.38;;;0.30;;
80193;SDS011;69515;42.072;21.504;2023-05-16T01:27:57;0.63;;;0.30;;
80193;SDS011;69515;42.072;21.504;2023-05-16T01:30:24;0.20;;;0.20;;
80193;SDS011;69515;42.072;21.504;2023-05-16T01:32:50;0.38;;;0.30;;
80193;SDS011;69515;42.072;21.504;2023-05-16T01:35:16;0.22;;;0.22;;
80193;SDS011;69515;42.072;21.504;2023-05-16T01:40:19;0.20;;;0.20;;
80193;SDS011;69515;42.072;21.504;2023-05-16T01:42:48;1.00;;;0.43;;
80193;SDS011;69515;42.072;21.504;2023-05-16T01:45:31;0.20;;;0.20;;
80193;SDS011;69515;42.072;21.504;2023-05-16T01:47:59;0.45;;;0.30;;
80193;SDS011;69515;42.072;21.504;2023-05-16T01:50:28;0.77;;;0.22;;
80193;SDS011;69515;42.072;21.504;2023-05-16T01:52:58;0.47;;;0.30;;
80193;SDS011;69515;42.072;21.504;2023-05-16T01:58:11;0.32;;;0.30;;
80193;SDS011;69515;42.072;21.504;2023-05-16T02:00:38;1.60;;;0.40;;
80193;SDS011;69515;42.072;21.504;2023-05-16T02:03:05;0.60;;;0.40;;
80193;SDS011;69515;42.072;21.504;2023-05-16T02:05:31;0.98;;;0.57;;
80193;SDS011;69515;42.072;21.504;2023-05-16T02:07:58;0.30;;;0.30;;
80193;SDS011;69515;42.072;21.504;2023-05-16T02:10:24;1.42;;;0.30;;
80193;SDS011;69515;42.072;21.504;2023-05-16T02:12:51;0.30;;;0.30;;
80193;SDS011;69515;42.072;21.504;2023-05-16T02:15:18;0.55;;;0.20;;
80193;SDS011;69515;42.072;21.504;2023-05-16T02:17:44;0.82;;;0.40;;
80193;SDS011;69515;42.072;21.504;2023-05-16T02:20:11;0.20;;;0.20;;
80193;SDS011;69515;42.072;21.504;2023-05-16T02:22:38;0.30;;;0.30;;
80193;SDS011;69515;42.072;21.504;2023-05-16T02:25:04;0.30;;;0.30;;
80193;SDS011;69515;42.072;21.504;2023-05-16T02:27:31;0.47;;;0.32;;
80193;SDS011;69515;42.072;21.504;2023-05-16T02:29:57;0.88;;;0.40;;
80193;SDS011;69515;42.072;21.504;2023-05-16T02:32:23;0.52;;;0.30;;
80193;SDS011;69515;42.072;21.504;2023-05-16T02:34:50;0.20;;;0.20;;
80193;SDS011;69515;42.072;21.504;2023-05-16T02:37:17;0.90;;;0.30;;
80193;SDS011;69515;42.072;21.504;2023-05-16T02:39:43;0.50;;;0.22;;
80193;SDS011;69515;42.072;21.504;2023-05-16T02:42:09;0.28;;;0.28;;
80193;SDS011;69515;42.072;21.504;2023-05-16T02:44:36;0.52;;;0.40;;
80193;SDS011;69515;42.072;21.504;2023-05-16T02:47:02;0.52;;;0.30;;
80193;SDS011;69515;42.072;21.504;2023-05-16T02:49:28;1.15;;;0.40;;
80193;SDS011;69515;42.072;21.504;2023-05-16T02:51:54;0.45;;;0.30;;
80193;SDS011;69515;42.072;21.504;2023-05-16T02:54:21;0.75;;;0.40;;
80193;SDS011;69515;42.072;21.504;2023-05-16T02:56:47;1.20;;;0.40;;
80193;SDS011;69515;42.072;21.504;2023-05-16T02:59:13;0.93;;;0.40;;
80193;SDS011;69515;42.072;21.504;2023-05-16T03:01:40;0.20;;;0.20;;
80193;SDS011;69515;42.072;21.504;2023-05-16T03:04:06;0.25;;;0.20;;
80193;SDS011;69515;42.072;21.504;2023-05-16T03:06:32;0.43;;;0.40;;
80193;SDS011;69515;42.072;21.504;2023-05-16T03:08:58;0.43;;;0.30;;
80193;SDS011;69515;42.072;21.504;2023-05-16T03:11:25;0.30;;;0.22;;
80193;SDS011;69515;42.072;21.504;2023-05-16T03:13:53;0.30;;;0.30;;
80193;SDS011;69515;42.072;21.504;2023-05-16T03:16:19;0.30;;;0.30;;
80193;SDS011;69515;42.072;21.504;2023-05-16T03:18:45;0.20;;;0.20;;
80193;SDS011;69515;42.072;21.504;2023-05-16T03:21:12;0.30;;;0.30;;
80193;SDS011;69515;42.072;21.504;2023-05-16T03:23:38;0.30;;;0.30;;
80193;SDS011;69515;42.072;21.504;2023-05-16T03:26:04;0.20;;;0.20;;
80193;SDS011;69515;42.072;21.504;2023-05-16T03:28:30;0.35;;;0.20;;
80193;SDS011;69515;42.072;21.504;2023-05-16T03:30:56;0.77;;;0.40;;
80193;SDS011;69515;42.072;21.504;2023-05-16T03:33:23;0.47;;;0.20;;
80193;SDS011;69515;42.072;21.504;2023-05-16T03:35:49;0.47;;;0.30;;
80193;SDS011;69515;42.072;21.504;2023-05-16T03:38:16;2.53;;;0.30;;
80193;SDS011;69515;42.072;21.504;2023-05-16T03:40:42;0.20;;;0.20;;
80193;SDS011;69515;42.072;21.504;2023-05-16T03:43:09;0.63;;;0.30;;
80193;SDS011;69515;42.072;21.504;2023-05-16T03:45:35;0.73;;;0.30;;
80193;SDS011;69515;42.072;21.504;2023-05-16T03:48:01;0.73;;;0.40;;
80193;SDS011;69515;42.072;21.504;2023-05-16T03:50:27;0.80;;;0.45;;
80193;SDS011;69515;42.072;21.504;2023-05-16T03:52:53;0.55;;;0.30;;
80193;SDS011;69515;42.072;21.504;2023-05-16T03:55:20;0.22;;;0.22;;
80193;SDS011;69515;42.072;21.504;2023-05-16T03:57:46;0.57;;;0.38;;
80193;SDS011;69515;42.072;21.504;2023-05-16T04:00:14;0.47;;;0.30;;
80193;SDS011;69515;42.072;21.504;2023-05-16T04:02:40;0.63;;;0.30;;
80193;SDS011;69515;42.072;21.504;2023-05-16T04:05:08;0.45;;;0.30;;
80193;SDS011;69515;42.072;21.504;2023-05-16T04:07:34;1.17;;;0.55;;
80193;SDS011;69515;42.072;21.504;2023-05-16T04:10:01;1.20;;;0.40;;
80193;SDS011;69515;42.072;21.504;2023-05-16T04:12:27;0.30;;;0.30;;
80193;SDS011;69515;42.072;21.504;2023-05-16T04:14:53;1.02;;;0.40;;
80193;SDS011;69515;42.072;21.504;2023-05-16T04:17:20;0.38;;;0.30;;
80193;SDS011;69515;42.072;21.504;2023-05-16T04:19:46;0.85;;;0.30;;
80193;SDS011;69515;42.072;21.504;2023-05-16T04:22:12;0.47;;;0.40;;
80193;SDS011;69515;42.072;21.504;2023-05-16T04:24:38;0.30;;;0.28;;
80193;SDS011;69515;42.072;21.504;2023-05-16T04:27:04;0.70;;;0.35;;
80193;SDS011;69515;42.072;21.504;2023-05-16T04:29:33;0.73;;;0.40;;
80193;SDS011;69515;42.072;21.504;2023-05-16T04:31:59;0.55;;;0.20;;
80193;SDS011;69515;42.072;21.504;2023-05-16T04:34:26;1.02;;;0.30;;
80193;SDS011;69515;42.072;21.504;2023-05-16T04:36:53;0.25;;;0.20;;
80193;SDS011;69515;42.072;21.504;2023-05-16T04:39:19;0.45;;;0.20;;
80193;SDS011;69515;42.072;21.504;2023-05-16T04:41:45;1.65;;;0.40;;
80193;SDS011;69515;42.072;21.504;2023-05-16T04:44:12;0.22;;;0.17;;
80193;SDS011;69515;42.072;21.504;2023-05-16T04:46:38;0.43;;;0.22;;
80193;SDS011;69515;42.072;21.504;2023-05-16T04:49:05;0.20;;;0.20;;
80193;SDS011;69515;42.072;21.504;2023-05-16T04:51:32;0.45;;;0.20;;
80193;SDS011;69515;42.072;21.504;2023-05-16T04:53:58;0.43;;;0.30;;
80193;SDS011;69515;42.072;21.504;2023-05-16T04:56:25;0.65;;;0.40;;
80193;SDS011;69515;42.072;21.504;2023-05-16T04:58:51;0.93;;;0.38;;
80193;SDS011;69515;42.072;21.504;2023-05-16T05:01:18;0.85;;;0.38;;
80193;SDS011;69515;42.072;21.504;2023-05-16T05:03:45;0.75;;;0.50;;
80193;SDS011;69515;42.072;21.504;2023-05-16T05:06:11;0.82;;;0.40;;
80193;SDS011;69515;42.072;21.504;2023-05-16T05:08:37;0.85;;;0.40;;
80193;SDS011;69515;42.072;21.504;2023-05-16T05:11:03;0.82;;;0.40;;
80193;SDS011;69515;42.072;21.504;2023-05-16T05:13:30;1.00;;;0.35;;
80193;SDS011;69515;42.072;21.504;2023-05-16T05:15:56;0.98;;;0.40;;
80193;SDS011;69515;42.072;21.504;2023-05-16T05:18:22;0.77;;;0.40;;
80193;SDS011;69515;42.072;21.504;2023-05-16T05:20:48;0.50;;;0.50;;
80193;SDS011;69515;42.072;21.504;2023-05-16T05:23:16;0.57;;;0.50;;
80193;SDS011;69515;42.072;21.504;2023-05-16T05:25:44;1.38;;;0.60;;
80193;SDS011;69515;42.072;21.504;2023-05-16T05:28:10;0.40;;;0.30;;
80193;SDS011;69515;42.072;21.504;2023-05-16T05:30:36;0.60;;;0.50;;
80193;SDS011;69515;42.072;21.504;2023-05-16T05:33:02;1.13;;;0.40;;
80193;SDS011;69515;42.072;21.504;2023-05-16T05:35:28;0.85;;;0.30;;
80193;SDS011;69515;42.072;21.504;2023-05-16T05:37:54;0.30;;;0.30;;
80193;SDS011;69515;42.072;21.504;2023-05-16T05:40:21;0.30;;;0.30;;
80193;SDS011;69515;42.072;21.504;2023-05-16T05:42:47;0.70;;;0.50;;
80193;SDS011;69515;42.072;21.504;2023-05-16T05:45:14;1.13;;;0.40;;
80193;SDS011;69515;42.072;21.504;2023-05-16T05:47:41;0.68;;;0.30;;
80193;SDS011;69515;42.072;21.504;2023-05-16T05:50:27;1.05;;;0.43;;
80193;SDS011;69515;42.072;21.504;2023-05-16T05:52:58;0.40;;;0.25;;
80193;SDS011;69515;42.072;21.504;2023-05-16T05:55:53;0.17;;;0.17;;
80193;SDS011;69515;42.072;21.504;2023-05-16T06:04:32;0.57;;;0.32;;
80193;SDS011;69515;42.072;21.504;2023-05-16T06:07:25;0.95;;;0.50;;
80193;SDS011;69515;42.072;21.504;2023-05-16T06:09:52;0.50;;;0.30;;
80193;SDS011;69515;42.072;21.504;2023-05-16T06:15:42;0.77;;;0.38;;
80193;SDS011;69515;42.072;21.504;2023-05-16T06:18:09;0.43;;;0.40;;
80193;SDS011;69515;42.072;21.504;2023-05-16T06:20:36;0.73;;;0.40;;
80193;SDS011;69515;42.072;21.504;2023-05-16T06:26:05;0.98;;;0.40;;
80193;SDS011;69515;42.072;21.504;2023-05-16T06:28:42;0.60;;;0.25;;
80193;SDS011;69515;42.072;21.504;2023-05-16T06:31:08;0.32;;;0.30;;
80193;SDS011;69515;42.072;21.504;2023-05-16T06:33:35;0.98;;;0.40;;
80193;SDS011;69515;42.072;21.504;2023-05-16T06:36:02;0.90;;;0.40;;
80193;SDS011;69515;42.072;21.504;2023-05-16T06:38:30;0.30;;;0.20;;
80193;SDS011;69515;42.072;21.504;2023-05-16T06:40:57;1.73;;;0.25;;
80193;SDS011;69515;42.072;21.504;2023-05-16T06:43:27;0.63;;;0.30;;
80193;SDS011;69515;42.072;21.504;2023-05-16T06:49:17;0.43;;;0.40;;
80193;SDS011;69515;42.072;21.504;2023-05-16T06:52:04;1.02;;;0.40;;
80193;SDS011;69515;42.072;21.504;2023-05-16T06:54:35;0.75;;;0.50;;
80193;SDS011;69515;42.072;21.504;2023-05-16T06:57:14;1.30;;;0.60;;
80193;SDS011;69515;42.072;21.504;2023-05-16T06:59:41;0.82;;;0.30;;
80193;SDS011;69515;42.072;21.504;2023-05-16T07:02:09;1.40;;;0.60;;
80193;SDS011;69515;42.072;21.504;2023-05-16T07:04:36;0.80;;;0.50;;
80193;SDS011;69515;42.072;21.504;2023-05-16T07:07:04;1.08;;;0.50;;
80193;SDS011;69515;42.072;21.504;2023-05-16T07:09:35;1.05;;;0.52;;
80193;SDS011;69515;42.072;21.504;2023-05-16T07:12:02;0.43;;;0.40;;
80193;SDS011;69515;42.072;21.504;2023-05-16T07:14:28;0.88;;;0.47;;
80193;SDS011;69515;42.072;21.504;2023-05-16T07:31:54;1.23;;;0.63;;
80193;SDS011;69515;42.072;21.504;2023-05-16T07:34:25;1.17;;;0.63;;
80193;SDS011;69515;42.072;21.504;2023-05-16T07:40:01;1.25;;;0.43;;
80193;SDS011;69515;42.072;21.504;2023-05-16T07:43:00;2.70;;;0.60;;
80193;SDS011;69515;42.072;21.504;2023-05-16T07:45:36;0.82;;;0.50;;
80193;SDS011;69515;42.072;21.504;2023-05-16T07:48:13;1.13;;;0.55;;
80193;SDS011;69515;42.072;21.504;2023-05-16T07:50:39;1.10;;;0.60;;
80193;SDS011;69515;42.072;21.504;2023-05-16T07:53:06;1.33;;;0.60;;
80193;SDS011;69515;42.072;21.504;2023-05-16T07:55:35;0.68;;;0.50;;
80193;SDS011;69515;42.072;21.504;2023-05-16T07:58:03;0.63;;;0.60;;
80193;SDS011;69515;42.072;21.504;2023-05-16T08:00:29;0.55;;;0.55;;
80193;SDS011;69515;42.072;21.504;2023-05-16T08:02:56;1.17;;;0.68;;
80193;SDS011;69515;42.072;21.504;2023-05-16T08:05:23;0.80;;;0.57;;
80193;SDS011;69515;42.072;21.504;2023-05-16T08:07:53;1.17;;;0.40;;
80193;SDS011;69515;42.072;21.504;2023-05-16T08:10:23;0.88;;;0.55;;
80193;SDS011;69515;42.072;21.504;2023-05-16T08:12:56;0.77;;;0.52;;
80193;SDS011;69515;42.072;21.504;2023-05-16T08:18:13;0.95;;;0.50;;
80193;SDS011;69515;42.072;21.504;2023-05-16T08:21:00;1.25;;;0.70;;
80193;SDS011;69515;42.072;21.504;2023-05-16T08:23:47;1.80;;;0.52;;
80193;SDS011;69515;42.072;21.504;2023-05-16T08:26:33;0.95;;;0.60;;
80193;SDS011;69515;42.072;21.504;2023-05-16T08:29:02;0.85;;;0.30;;
80193;SDS011;69515;42.072;21.504;2023-05-16T08:31:30;1.52;;;0.73;;
80193;SDS011;69515;42.072;21.504;2023-05-16T08:34:16;0.88;;;0.60;;
80193;SDS011;69515;42.072;21.504;2023-05-16T08:36:43;0.88;;;0.50;;
80193;SDS011;69515;42.072;21.504;2023-05-16T08:39:09;1.00;;;0.55;;
80193;SDS011;69515;42.072;21.504;2023-05-16T08:41:36;1.08;;;0.60;;
80193;SDS011;69515;42.072;21.504;2023-05-16T08:44:03;0.65;;;0.50;;
80193;SDS011;69515;42.072;21.504;2023-05-16T08:46:29;1.30;;;0.60;;
80193;SDS011;69515;42.072;21.504;2023-05-16T08:49:01;0.63;;;0.50;;
80193;SDS011;69515;42.072;21.504;2023-05-16T08:51:32;1.10;;;0.60;;
80193;SDS011;69515;42.072;21.504;2023-05-16T08:54:05;1.20;;;0.52;;
80193;SDS011;69515;42.072;21.504;2023-05-16T08:56:42;1.67;;;0.70;;
80193;SDS011;69515;42.072;21.504;2023-05-16T08:59:16;0.82;;;0.60;;
80193;SDS011;69515;42.072;21.504;2023-05-16T09:01:47;1.08;;;0.63;;
80193;SDS011;69515;42.072;21.504;2023-05-16T09:04:19;1.10;;;0.60;;
80193;SDS011;69515;42.072;21.504;2023-05-16T09:06:49;1.30;;;0.70;;
80193;SDS011;69515;42.072;21.504;2023-05-16T09:09:20;1.42;;;0.60;;
80193;SDS011;69515;42.072;21.504;2023-05-16T09:11:48;1.27;;;0.65;;
80193;SDS011;69515;42.072;21.504;2023-05-16T09:17:28;1.25;;;0.65;;
80193;SDS011;69515;42.072;21.504;2023-05-16T09:22:59;1.08;;;0.40;;
80193;SDS011;69515;42.072;21.504;2023-05-16T09:28:53;0.57;;;0.45;;
80193;SDS011;69515;42.072;21.504;2023-05-16T09:31:23;1.55;;;0.52;;
80193;SDS011;69515;42.072;21.504;2023-05-16T09:37:05;0.90;;;0.45;;
80193;SDS011;69515;42.072;21.504;2023-05-16T09:39:35;0.95;;;0.50;;
80193;SDS011;69515;42.072;21.504;2023-05-16T09:42:02;0.90;;;0.50;;
80193;SDS011;69515;42.072;21.504;2023-05-16T09:44:30;0.77;;;0.52;;
80193;SDS011;69515;42.072;21.504;2023-05-16T09:46:57;1.00;;;0.50;;
80193;SDS011;69515;42.072;21.504;2023-05-16T09:52:28;1.30;;;0.60;;
80193;SDS011;69515;42.072;21.504;2023-05-16T09:55:11;1.45;;;0.60;;
80193;SDS011;69515;42.072;21.504;2023-05-16T10:03:41;0.50;;;0.50;;
80193;SDS011;69515;42.072;21.504;2023-05-16T10:06:14;1.42;;;0.63;;
80193;SDS011;69515;42.072;21.504;2023-05-16T10:09:26;1.20;;;0.60;;
80193;SDS011;69515;42.072;21.504;2023-05-16T10:11:53;0.70;;;0.52;;
80193;SDS011;69515;42.072;21.504;2023-05-16T10:17:07;1.25;;;0.60;;
80193;SDS011;69515;42.072;21.504;2023-05-16T10:22:51;1.30;;;0.52;;
80193;SDS011;69515;42.072;21.504;2023-05-16T10:28:36;1.85;;;0.80;;
80193;SDS011;69515;42.072;21.504;2023-05-16T10:34:19;1.75;;;1.02;;
80193;SDS011;69515;42.072;21.504;2023-05-16T10:36:46;1.85;;;1.20;;
80193;SDS011;69515;42.072;21.504;2023-05-16T10:39:33;3.63;;;1.75;;
80193;SDS011;69515;42.072;21.504;2023-05-16T10:45:16;1.63;;;0.50;;
80193;SDS011;69515;42.072;21.504;2023-05-16T10:54:32;0.90;;;0.60;;
80193;SDS011;69515;42.072;21.504;2023-05-16T11:03:31;0.80;;;0.50;;
80193;SDS011;69515;42.072;21.504;2023-05-16T11:05:58;1.00;;;0.55;;
80193;SDS011;69515;42.072;21.504;2023-05-16T11:08:25;0.60;;;0.43;;
80193;SDS011;69515;42.072;21.504;2023-05-16T11:11:23;0.70;;;0.40;;
80193;SDS011;69515;42.072;21.504;2023-05-16T11:13:52;1.20;;;0.60;;
80193;SDS011;69515;42.072;21.504;2023-05-16T11:16:37;0.93;;;0.60;;
80193;SDS011;69515;42.072;21.504;2023-05-16T11:19:04;0.47;;;0.30;;
80193;SDS011;69515;42.072;21.504;2023-05-16T11:24:30;1.70;;;0.50;;
80193;SDS011;69515;42.072;21.504;2023-05-16T11:27:00;0.68;;;0.50;;
80193;SDS011;69515;42.072;21.504;2023-05-16T11:29:33;1.38;;;0.50;;
80193;SDS011;69515;42.072;21.504;2023-05-16T11:32:00;0.65;;;0.40;;
80193;SDS011;69515;42.072;21.504;2023-05-16T11:34:27;0.93;;;0.50;;
80193;SDS011;69515;42.072;21.504;2023-05-16T11:36:54;0.90;;;0.50;;
80193;SDS011;69515;42.072;21.504;2023-05-16T11:39:22;0.85;;;0.50;;
80193;SDS011;69515;42.072;21.504;2023-05-16T11:41:49;0.75;;;0.40;;
80193;SDS011;69515;42.072;21.504;2023-05-16T11:44:15;1.50;;;0.70;;
80193;SDS011;69515;42.072;21.504;2023-05-16T11:46:42;0.63;;;0.40;;
80193;SDS011;69515;42.072;21.504;2023-05-16T11:49:08;1.15;;;0.50;;
80193;SDS011;69515;42.072;21.504;2023-05-16T11:51:40;0.73;;;0.40;;
80193;SDS011;69515;42.072;21.504;2023-05-16T11:54:09;0.75;;;0.50;;
80193;SDS011;69515;42.072;21.504;2023-05-16T11:56:37;0.93;;;0.50;;
80193;SDS011;69515;42.072;21.504;2023-05-16T11:59:05;0.73;;;0.57;;
80193;SDS011;69515;42.072;21.504;2023-05-16T12:01:35;0.50;;;0.40;;
80193;SDS011;69515;42.072;21.504;2023-05-16T12:04:01;0.82;;;0.50;;
80193;SDS011;69515;42.072;21.504;2023-05-16T12:09:31;1.38;;;0.43;;
80193;SDS011;69515;42.072;21.504;2023-05-16T12:11:57;1.38;;;0.60;;
80193;SDS011;69515;42.072;21.504;2023-05-16T12:14:23;0.98;;;0.50;;
80193;SDS011;69515;42.072;21.504;2023-05-16T12:16:50;0.73;;;0.50;;
80193;SDS011;69515;42.072;21.504;2023-05-16T12:19:17;1.15;;;0.50;;
80193;SDS011;69515;42.072;21.504;2023-05-16T12:21:43;0.70;;;0.50;;
80193;SDS011;69515;42.072;21.504;2023-05-16T12:24:10;1.00;;;0.43;;
80193;SDS011;69515;42.072;21.504;2023-05-16T12:26:38;1.00;;;0.60;;
80193;SDS011;69515;42.072;21.504;2023-05-16T12:29:05;0.88;;;0.50;;
80193;SDS011;69515;42.072;21.504;2023-05-16T12:31:35;0.35;;;0.30;;
80193;SDS011;69515;42.072;21.504;2023-05-16T12:34:01;1.33;;;0.55;;
80193;SDS011;69515;42.072;21.504;2023-05-16T12:42:47;1.33;;;0.60;;
80193;SDS011;69515;42.072;21.504;2023-05-16T12:45:15;1.05;;;0.52;;
80193;SDS011;69515;42.072;21.504;2023-05-16T12:47:43;0.98;;;0.50;;
80193;SDS011;69515;42.072;21.504;2023-05-16T12:50:09;0.57;;;0.50;;
80193;SDS011;69515;42.072;21.504;2023-05-16T12:52:52;1.02;;;0.55;;
80193;SDS011;69515;42.072;21.504;2023-05-16T12:55:19;1.00;;;0.50;;
80193;SDS011;69515;42.072;21.504;2023-05-16T12:57:45;0.73;;;0.50;;
80193;SDS011;69515;42.072;21.504;2023-05-16T13:00:12;1.17;;;0.40;;
80193;SDS011;69515;42.072;21.504;2023-05-16T13:02:39;1.17;;;0.50;;
80193;SDS011;69515;42.072;21.504;2023-05-16T13:05:05;1.02;;;0.50;;
80193;SDS011;69515;42.072;21.504;2023-05-16T13:07:32;0.80;;;0.50;;
80193;SDS011;69515;42.072;21.504;2023-05-16T13:09:58;1.33;;;0.57;;
80193;SDS011;69515;42.072;21.504;2023-05-16T13:12:24;0.88;;;0.43;;
80193;SDS011;69515;42.072;21.504;2023-05-16T13:14:51;0.40;;;0.40;;
80193;SDS011;69515;42.072;21.504;2023-05-16T13:17:18;1.02;;;0.50;;
80193;SDS011;69515;42.072;21.504;2023-05-16T13:19:44;1.45;;;0.60;;
80193;SDS011;69515;42.072;21.504;2023-05-16T13:22:11;0.65;;;0.35;;
80193;SDS011;69515;42.072;21.504;2023-05-16T13:24:37;1.20;;;0.47;;
80193;SDS011;69515;42.072;21.504;2023-05-16T13:27:03;0.60;;;0.40;;
80193;SDS011;69515;42.072;21.504;2023-05-16T13:29:29;0.68;;;0.40;;
80193;SDS011;69515;42.072;21.504;2023-05-16T13:31:56;0.82;;;0.40;;
80193;SDS011;69515;42.072;21.504;2023-05-16T13:34:25;0.68;;;0.47;;
80193;SDS011;69515;42.072;21.504;2023-05-16T13:36:51;1.58;;;0.40;;
80193;SDS011;69515;42.072;21.504;2023-05-16T13:39:17;0.77;;;0.50;;
80193;SDS011;69515;42.072;21.504;2023-05-16T13:41:43;0.38;;;0.30;;
80193;SDS011;69515;42.072;21.504;2023-05-16T13:44:09;0.43;;;0.40;;
80193;SDS011;69515;42.072;21.504;2023-05-16T13:46:38;0.90;;;0.60;;
80193;SDS011;69515;42.072;21.504;2023-05-16T13:49:04;1.00;;;0.55;;
80193;SDS011;69515;42.072;21.504;2023-05-16T13:51:31;0.98;;;0.38;;
80193;SDS011;69515;42.072;21.504;2023-05-16T13:53:57;1.45;;;0.60;;
80193;SDS011;69515;42.072;21.504;2023-05-16T13:56:23;0.90;;;0.60;;
80193;SDS011;69515;42.072;21.504;2023-05-16T13:58:50;0.68;;;0.50;;
80193;SDS011;69515;42.072;21.504;2023-05-16T14:01:16;1.90;;;0.57;;
80193;SDS011;69515;42.072;21.504;2023-05-16T14:03:44;0.70;;;0.43;;
80193;SDS011;69515;42.072;21.504;2023-05-16T14:06:10;0.73;;;0.45;;
80193;SDS011;69515;42.072;21.504;2023-05-16T14:08:36;1.15;;;0.60;;
80193;SDS011;69515;42.072;21.504;2023-05-16T14:11:02;0.80;;;0.60;;
80193;SDS011;69515;42.072;21.504;2023-05-16T14:13:29;0.75;;;0.47;;
80193;SDS011;69515;42.072;21.504;2023-05-16T14:15:55;0.88;;;0.43;;
80193;SDS011;69515;42.072;21.504;2023-05-16T14:18:22;1.70;;;0.57;;
80193;SDS011;69515;42.072;21.504;2023-05-16T14:20:48;0.88;;;0.50;;
80193;SDS011;69515;42.072;21.504;2023-05-16T14:23:15;1.63;;;0.65;;
80193;SDS011;69515;42.072;21.504;2023-05-16T14:25:41;0.73;;;0.47;;
80193;SDS011;69515;42.072;21.504;2023-05-16T14:28:10;1.35;;;0.68;;
80193;SDS011;69515;42.072;21.504;2023-05-16T14:30:36;0.60;;;0.52;;
80193;SDS011;69515;42.072;21.504;2023-05-16T14:33:05;0.95;;;0.50;;
80193;SDS011;69515;42.072;21.504;2023-05-16T14:35:38;0.68;;;0.50;;
80193;SDS011;69515;42.072;21.504;2023-05-16T14:38:05;1.27;;;0.65;;
80193;SDS011;69515;42.072;21.504;2023-05-16T14:40:32;1.23;;;0.68;;
80193;SDS011;69515;42.072;21.504;2023-05-16T14:42:58;1.75;;;0.68;;
80193;SDS011;69515;42.072;21.504;2023-05-16T14:45:24;1.52;;;0.60;;
80193;SDS011;69515;42.072;21.504;2023-05-16T14:47:51;0.50;;;0.38;;
80193;SDS011;69515;42.072;21.504;2023-05-16T14:50:17;1.48;;;0.70;;
80193;SDS011;69515;42.072;21.504;2023-05-16T14:53:04;1.45;;;0.70;;
80193;SDS011;69515;42.072;21.504;2023-05-16T14:55:31;1.00;;;0.60;;
80193;SDS011;69515;42.072;21.504;2023-05-16T14:57:57;0.93;;;0.50;;
80193;SDS011;69515;42.072;21.504;2023-05-16T15:00:24;1.80;;;0.60;;
80193;SDS011;69515;42.072;21.504;2023-05-16T15:02:50;0.93;;;0.50;;
80193;SDS011;69515;42.072;21.504;2023-05-16T15:05:17;1.30;;;0.63;;
80193;SDS011;69515;42.072;21.504;2023-05-16T15:07:43;2.22;;;0.80;;
80193;SDS011;69515;42.072;21.504;2023-05-16T15:10:09;1.42;;;0.70;;
80193;SDS011;69515;42.072;21.504;2023-05-16T15:12:36;1.15;;;0.60;;
80193;SDS011;69515;42.072;21.504;2023-05-16T15:15:05;1.25;;;0.63;;
80193;SDS011;69515;42.072;21.504;2023-05-16T15:17:32;0.70;;;0.60;;
80193;SDS011;69515;42.072;21.504;2023-05-16T15:19:58;0.95;;;0.52;;
80193;SDS011;69515;42.072;21.504;2023-05-16T15:22:24;1.42;;;0.63;;
80193;SDS011;69515;42.072;21.504;2023-05-16T15:24:50;1.63;;;0.70;;
80193;SDS011;69515;42.072;21.504;2023-05-16T15:27:17;2.08;;;0.80;;
80193;SDS011;69515;42.072;21.504;2023-05-16T15:29:43;1.35;;;0.65;;
80193;SDS011;69515;42.072;21.504;2023-05-16T15:32:09;1.15;;;0.50;;
80193;SDS011;69515;42.072;21.504;2023-05-16T15:34:37;1.13;;;0.68;;
80193;SDS011;69515;42.072;21.504;2023-05-16T15:37:03;1.92;;;0.70;;
80193;SDS011;69515;42.072;21.504;2023-05-16T15:39:30;1.90;;;0.70;;
80193;SDS011;69515;42.072;21.504;2023-05-16T15:41:56;1.40;;;0.63;;
80193;SDS011;69515;42.072;21.504;2023-05-16T15:44:22;0.85;;;0.50;;
80193;SDS011;69515;42.072;21.504;2023-05-16T15:46:48;0.73;;;0.52;;
80193;SDS011;69515;42.072;21.504;2023-05-16T15:49:15;2.35;;;0.70;;
80193;SDS011;69515;42.072;21.504;2023-05-16T15:51:41;1.48;;;0.60;;
80193;SDS011;69515;42.072;21.504;2023-05-16T15:54:07;0.93;;;0.52;;
80193;SDS011;69515;42.072;21.504;2023-05-16T15:56:34;1.27;;;0.60;;
80193;SDS011;69515;42.072;21.504;2023-05-16T15:59:00;1.90;;;0.60;;
80193;SDS011;69515;42.072;21.504;2023-05-16T16:01:26;1.55;;;0.60;;
80193;SDS011;69515;42.072;21.504;2023-05-16T16:03:53;1.55;;;0.65;;
80193;SDS011;69515;42.072;21.504;2023-05-16T16:06:19;1.30;;;0.63;;
80193;SDS011;69515;42.072;21.504;2023-05-16T16:08:46;1.42;;;0.50;;
80193;SDS011;69515;42.072;21.504;2023-05-16T16:11:12;1.00;;;0.60;;
80193;SDS011;69515;42.072;21.504;2023-05-16T16:13:38;1.00;;;0.55;;
80193;SDS011;69515;42.072;21.504;2023-05-16T16:16:05;1.02;;;0.60;;
80193;SDS011;69515;42.072;21.504;2023-05-16T16:18:31;0.88;;;0.50;;
80193;SDS011;69515;42.072;21.504;2023-05-16T16:20:58;1.33;;;0.65;;
80193;SDS011;69515;42.072;21.504;2023-05-16T16:23:25;1.20;;;0.60;;
80193;SDS011;69515;42.072;21.504;2023-05-16T16:25:52;1.20;;;0.60;;
80193;SDS011;69515;42.072;21.504;2023-05-16T16:28:18;1.73;;;0.65;;
80193;SDS011;69515;42.072;21.504;2023-05-16T16:30:45;1.27;;;0.60;;
80193;SDS011;69515;42.072;21.504;2023-05-16T16:33:14;0.98;;;0.57;;
80193;SDS011;69515;42.072;21.504;2023-05-16T16:35:40;1.08;;;0.63;;